首页
METAR-TAF:

METAR-TAF

机场 :

门兴格拉德巴赫, 德国

纬度: 51-13-49N, 经度: 006-30-16E, 海拔: 38米

当前天气观测

该预报发布于44分钟前的14:20 UTC
风速9节,风向西南,在西转西南之间变化
温度 13°C
湿度 88%
气压 992 hPa
能见度10公里或以上
散云层高于5000英尺

METAR: EDLN 051420Z 22009KT 170V240 9999 SCT050 13/11 Q0992

时间: 17:04 (15:04 UTC)

预报

该预报发布于1小时和4分钟前的14:00 UTC
预报有效从05日的 15点(UTC)到 05日的 24点(UTC)
风速10节,风向西转西南
能见度10公里或以上
多云层高于2000英尺
短暂存在
从 05日的 15点(UTC)到 05日的 18点(UTC)
风速15节,风向西转西南,有时为25节阵风
阵雨
几率 30% :
短暂存在
从 05日的 15点(UTC)到 05日的 17点(UTC)
风速20节,风向西转西南,有时为35节阵风
能見度: 4000
多云层高于1200英尺, 积雨云.
雷暴, 雨

TAF: EDLN 051400Z 0515/0524 24010KT 9999 BKN020 TEMPO 0515/0518 24015G25KT SHRA PROB30 TEMPO 0515/0517 25020G35KT 4000 TSRA BKN012CB

超过4000个机场的气象观测和天气预报(METAR&TAF报告)。

可查询的气象台以黄色和红色小点在地图上表示。

将鼠标移到小点上方,可查看气象台名称。

然后点击查看天气观测和预报。

如需切换地图:点击带黑十字的绿色按钮放大地图;点击带横线的绿色按钮缩小地图;或者点击绿色箭头查看邻近地区的地图。


METAR-TAF: